Urb Los Almendros, Puerto Rico
Current Conditions -  °F | °C
As of 7:56 AM on Monday 24 Nov 2014 (Local Time) from TJSJ Reporting Station
Scattered Clouds Scattered Clouds  
Wind Chill: 80°   Ceiling: Unl
Heat Index: 85°   Visibility: 10mi
Dew Point: 74°   Wind: 12mph
Humidity: 81%   Direction: 70°ENE
Pressure: 30.05"   Gusts: NA
Location:  18.2339°N, 65.9218°W
Report Text: TJSJ 241156Z 07010KT 10SM FEW027 SCT034 SCT060 27/23 A3005 RMK AO2 SLP175 T02670233 10267 20244 53030 $
Loading
Personal Weather Stations






























Interactive Weather Map New forecast layout! Learn more

10-Day Weather Forecast

Advertisements
Track Severe Weather on mobile